sensor_id;sensor_type;location;lat;lon;timestamp;P1;durP1;ratioP1;P2;durP2;ratioP2
3873;SDS011;1952;50.872;6.692;2022-07-24T00:30:51;9.17;;;8.20;;
3873;SDS011;1952;50.872;6.692;2022-07-24T00:33:20;10.97;;;9.80;;
3873;SDS011;1952;50.872;6.692;2022-07-24T00:35:53;9.73;;;8.83;;
3873;SDS011;1952;50.872;6.692;2022-07-24T00:38:26;9.20;;;8.40;;
3873;SDS011;1952;50.872;6.692;2022-07-24T00:40:55;10.93;;;8.53;;
3873;SDS011;1952;50.872;6.692;2022-07-24T00:43:24;11.80;;;10.70;;
3873;SDS011;1952;50.872;6.692;2022-07-24T00:45:54;8.90;;;8.20;;
3873;SDS011;1952;50.872;6.692;2022-07-24T00:48:24;10.10;;;9.10;;
3873;SDS011;1952;50.872;6.692;2022-07-24T00:50:52;11.37;;;9.77;;
3873;SDS011;1952;50.872;6.692;2022-07-24T00:53:25;9.83;;;8.93;;
3873;SDS011;1952;50.872;6.692;2022-07-24T00:56:01;10.63;;;9.17;;
3873;SDS011;1952;50.872;6.692;2022-07-24T00:58:30;11.70;;;10.27;;
3873;SDS011;1952;50.872;6.692;2022-07-24T01:01:05;10.97;;;10.07;;
3873;SDS011;1952;50.872;6.692;2022-07-24T01:03:33;10.87;;;9.77;;
3873;SDS011;1952;50.872;6.692;2022-07-24T01:06:01;18.70;;;10.40;;
3873;SDS011;1952;50.872;6.692;2022-07-24T01:08:35;10.13;;;9.17;;
3873;SDS011;1952;50.872;6.692;2022-07-24T01:11:04;9.53;;;8.83;;
3873;SDS011;1952;50.872;6.692;2022-07-24T01:13:33;11.10;;;9.80;;
3873;SDS011;1952;50.872;6.692;2022-07-24T01:16:03;11.87;;;10.07;;
3873;SDS011;1952;50.872;6.692;2022-07-24T01:18:31;10.10;;;9.20;;
3873;SDS011;1952;50.872;6.692;2022-07-24T01:21:02;10.63;;;9.53;;
3873;SDS011;1952;50.872;6.692;2022-07-24T01:23:36;14.83;;;10.30;;
3873;SDS011;1952;50.872;6.692;2022-07-24T01:26:05;11.20;;;10.10;;
3873;SDS011;1952;50.872;6.692;2022-07-24T01:28:34;10.10;;;8.77;;
3873;SDS011;1952;50.872;6.692;2022-07-24T01:31:02;9.83;;;8.93;;
3873;SDS011;1952;50.872;6.692;2022-07-24T01:33:31;10.20;;;9.20;;
3873;SDS011;1952;50.872;6.692;2022-07-24T01:36:07;9.50;;;8.60;;
3873;SDS011;1952;50.872;6.692;2022-07-24T01:38:35;10.70;;;9.77;;
3873;SDS011;1952;50.872;6.692;2022-07-24T01:41:04;11.73;;;10.57;;
3873;SDS011;1952;50.872;6.692;2022-07-24T01:43:32;11.13;;;10.13;;
3873;SDS011;1952;50.872;6.692;2022-07-24T01:46:04;12.47;;;11.37;;
3873;SDS011;1952;50.872;6.692;2022-07-24T01:48:33;10.23;;;9.33;;
3873;SDS011;1952;50.872;6.692;2022-07-24T01:51:02;11.80;;;10.70;;
3873;SDS011;1952;50.872;6.692;2022-07-24T01:53:32;11.27;;;10.33;;
3873;SDS011;1952;50.872;6.692;2022-07-24T01:56:05;11.90;;;10.80;;
3873;SDS011;1952;50.872;6.692;2022-07-24T01:58:34;9.07;;;8.27;;
3873;SDS011;1952;50.872;6.692;2022-07-24T02:01:05;11.83;;;10.80;;
3873;SDS011;1952;50.872;6.692;2022-07-24T02:03:38;12.70;;;11.17;;
3873;SDS011;1952;50.872;6.692;2022-07-24T02:06:06;12.17;;;10.60;;
3873;SDS011;1952;50.872;6.692;2022-07-24T02:08:36;11.60;;;9.83;;
3873;SDS011;1952;50.872;6.692;2022-07-24T02:11:08;12.63;;;11.43;;
3873;SDS011;1952;50.872;6.692;2022-07-24T02:13:42;11.47;;;10.37;;
3873;SDS011;1952;50.872;6.692;2022-07-24T02:16:11;12.70;;;11.40;;
3873;SDS011;1952;50.872;6.692;2022-07-24T02:18:39;13.70;;;12.40;;
3873;SDS011;1952;50.872;6.692;2022-07-24T02:21:12;13.80;;;12.50;;
3873;SDS011;1952;50.872;6.692;2022-07-24T02:23:41;11.70;;;10.70;;
3873;SDS011;1952;50.872;6.692;2022-07-24T02:26:09;14.17;;;12.87;;
3873;SDS011;1952;50.872;6.692;2022-07-24T02:28:42;14.37;;;13.03;;
3873;SDS011;1952;50.872;6.692;2022-07-24T02:31:10;11.63;;;10.53;;
3873;SDS011;1952;50.872;6.692;2022-07-24T02:33:41;13.67;;;12.20;;
3873;SDS011;1952;50.872;6.692;2022-07-24T02:36:09;10.00;;;9.10;;
3873;SDS011;1952;50.872;6.692;2022-07-24T02:38:43;10.50;;;9.60;;
3873;SDS011;1952;50.872;6.692;2022-07-24T02:41:11;11.73;;;10.40;;
3873;SDS011;1952;50.872;6.692;2022-07-24T02:43:39;10.67;;;9.70;;
3873;SDS011;1952;50.872;6.692;2022-07-24T02:46:07;11.43;;;10.43;;
3873;SDS011;1952;50.872;6.692;2022-07-24T02:48:36;10.50;;;9.60;;
3873;SDS011;1952;50.872;6.692;2022-07-24T02:51:04;10.10;;;9.30;;
3873;SDS011;1952;50.872;6.692;2022-07-24T02:53:37;11.63;;;10.60;;
3873;SDS011;1952;50.872;6.692;2022-07-24T02:56:21;10.70;;;9.70;;
3873;SDS011;1952;50.872;6.692;2022-07-24T02:58:49;10.80;;;9.80;;
3873;SDS011;1952;50.872;6.692;2022-07-24T03:01:19;12.30;;;11.07;;
3873;SDS011;1952;50.872;6.692;2022-07-24T03:03:53;12.93;;;11.53;;
3873;SDS011;1952;50.872;6.692;2022-07-24T03:06:22;12.23;;;11.03;;
3873;SDS011;1952;50.872;6.692;2022-07-24T03:08:51;12.30;;;11.00;;
3873;SDS011;1952;50.872;6.692;2022-07-24T03:11:20;13.00;;;11.70;;
3873;SDS011;1952;50.872;6.692;2022-07-24T03:13:49;11.30;;;10.30;;
3873;SDS011;1952;50.872;6.692;2022-07-24T03:16:17;10.20;;;9.30;;
3873;SDS011;1952;50.872;6.692;2022-07-24T03:18:45;13.37;;;12.10;;
3873;SDS011;1952;50.872;6.692;2022-07-24T03:21:19;12.37;;;11.20;;
3873;SDS011;1952;50.872;6.692;2022-07-24T03:23:52;11.67;;;10.53;;
3873;SDS011;1952;50.872;6.692;2022-07-24T03:26:22;11.03;;;9.83;;
3873;SDS011;1952;50.872;6.692;2022-07-24T03:28:53;10.40;;;9.40;;
3873;SDS011;1952;50.872;6.692;2022-07-24T03:31:22;11.10;;;10.10;;
3873;SDS011;1952;50.872;6.692;2022-07-24T03:33:51;10.50;;;9.70;;
3873;SDS011;1952;50.872;6.692;2022-07-24T03:36:19;12.37;;;11.27;;
3873;SDS011;1952;50.872;6.692;2022-07-24T03:38:52;12.50;;;11.20;;
3873;SDS011;1952;50.872;6.692;2022-07-24T03:41:20;10.80;;;9.80;;
3873;SDS011;1952;50.872;6.692;2022-07-24T03:43:55;10.80;;;9.80;;
3873;SDS011;1952;50.872;6.692;2022-07-24T03:46:23;10.00;;;9.00;;
3873;SDS011;1952;50.872;6.692;2022-07-24T03:48:59;11.23;;;10.17;;
3873;SDS011;1952;50.872;6.692;2022-07-24T03:51:27;10.70;;;9.80;;
3873;SDS011;1952;50.872;6.692;2022-07-24T03:53:55;11.93;;;10.80;;
3873;SDS011;1952;50.872;6.692;2022-07-24T03:56:23;12.13;;;11.03;;
3873;SDS011;1952;50.872;6.692;2022-07-24T03:58:51;12.47;;;11.40;;
3873;SDS011;1952;50.872;6.692;2022-07-24T04:01:21;10.87;;;9.97;;
3873;SDS011;1952;50.872;6.692;2022-07-24T04:03:50;13.90;;;12.70;;
3873;SDS011;1952;50.872;6.692;2022-07-24T04:06:23;13.50;;;12.20;;
3873;SDS011;1952;50.872;6.692;2022-07-24T04:08:53;12.87;;;11.77;;
3873;SDS011;1952;50.872;6.692;2022-07-24T04:11:21;12.17;;;10.83;;
3873;SDS011;1952;50.872;6.692;2022-07-24T04:13:49;12.50;;;11.37;;
3873;SDS011;1952;50.872;6.692;2022-07-24T04:16:25;12.20;;;11.10;;
3873;SDS011;1952;50.872;6.692;2022-07-24T04:18:54;13.43;;;12.33;;
3873;SDS011;1952;50.872;6.692;2022-07-24T04:21:28;10.93;;;9.93;;
3873;SDS011;1952;50.872;6.692;2022-07-24T04:23:57;12.83;;;11.60;;
3873;SDS011;1952;50.872;6.692;2022-07-24T04:26:26;12.77;;;11.57;;
3873;SDS011;1952;50.872;6.692;2022-07-24T04:28:58;14.17;;;12.07;;
3873;SDS011;1952;50.872;6.692;2022-07-24T04:31:29;13.57;;;12.20;;
3873;SDS011;1952;50.872;6.692;2022-07-24T04:33:59;11.80;;;10.80;;
3873;SDS011;1952;50.872;6.692;2022-07-24T04:36:27;11.03;;;10.00;;
3873;SDS011;1952;50.872;6.692;2022-07-24T04:38:56;13.37;;;12.20;;
3873;SDS011;1952;50.872;6.692;2022-07-24T04:41:24;10.97;;;10.07;;
3873;SDS011;1952;50.872;6.692;2022-07-24T04:43:56;10.80;;;9.90;;
3873;SDS011;1952;50.872;6.692;2022-07-24T04:46:36;12.73;;;11.43;;
3873;SDS011;1952;50.872;6.692;2022-07-24T04:49:05;11.30;;;10.30;;
3873;SDS011;1952;50.872;6.692;2022-07-24T04:51:38;11.53;;;10.57;;
3873;SDS011;1952;50.872;6.692;2022-07-24T04:54:06;9.90;;;9.10;;
3873;SDS011;1952;50.872;6.692;2022-07-24T04:56:43;11.20;;;10.20;;
3873;SDS011;1952;50.872;6.692;2022-07-24T04:59:12;9.60;;;8.60;;
3873;SDS011;1952;50.872;6.692;2022-07-24T05:01:50;9.30;;;8.40;;
3873;SDS011;1952;50.872;6.692;2022-07-24T05:04:26;10.27;;;9.37;;
3873;SDS011;1952;50.872;6.692;2022-07-24T05:07:22;9.83;;;9.03;;
3873;SDS011;1952;50.872;6.692;2022-07-24T05:09:51;10.40;;;9.50;;
3873;SDS011;1952;50.872;6.692;2022-07-24T05:12:19;9.13;;;8.33;;
3873;SDS011;1952;50.872;6.692;2022-07-24T05:15:02;9.80;;;8.87;;
3873;SDS011;1952;50.872;6.692;2022-07-24T05:17:40;10.60;;;9.70;;
3873;SDS011;1952;50.872;6.692;2022-07-24T05:20:09;9.67;;;8.77;;
3873;SDS011;1952;50.872;6.692;2022-07-24T05:22:40;10.53;;;9.67;;
3873;SDS011;1952;50.872;6.692;2022-07-24T05:25:09;10.97;;;9.70;;
3873;SDS011;1952;50.872;6.692;2022-07-24T05:27:44;9.63;;;8.87;;
3873;SDS011;1952;50.872;6.692;2022-07-24T05:30:14;8.53;;;7.93;;
3873;SDS011;1952;50.872;6.692;2022-07-24T05:35:47;9.83;;;9.03;;
3873;SDS011;1952;50.872;6.692;2022-07-24T05:38:15;9.73;;;8.93;;
3873;SDS011;1952;50.872;6.692;2022-07-24T05:40:48;8.73;;;7.93;;
3873;SDS011;1952;50.872;6.692;2022-07-24T05:43:21;10.73;;;9.63;;
3873;SDS011;1952;50.872;6.692;2022-07-24T05:45:55;10.43;;;9.43;;
3873;SDS011;1952;50.872;6.692;2022-07-24T05:48:23;9.10;;;8.40;;
3873;SDS011;1952;50.872;6.692;2022-07-24T05:50:57;9.73;;;8.73;;
3873;SDS011;1952;50.872;6.692;2022-07-24T05:53:26;9.73;;;8.93;;
3873;SDS011;1952;50.872;6.692;2022-07-24T06:46:40;8.63;;;8.00;;
3873;SDS011;1952;50.872;6.692;2022-07-24T06:49:08;8.10;;;7.50;;
3873;SDS011;1952;50.872;6.692;2022-07-24T06:51:39;8.70;;;7.97;;
3873;SDS011;1952;50.872;6.692;2022-07-24T06:54:12;8.63;;;8.03;;
3873;SDS011;1952;50.872;6.692;2022-07-24T06:56:50;8.67;;;7.53;;
3873;SDS011;1952;50.872;6.692;2022-07-24T06:59:20;7.73;;;7.03;;
3873;SDS011;1952;50.872;6.692;2022-07-24T07:01:50;7.77;;;7.07;;
3873;SDS011;1952;50.872;6.692;2022-07-24T07:04:19;6.80;;;6.40;;
3873;SDS011;1952;50.872;6.692;2022-07-24T07:06:51;6.60;;;6.00;;
3873;SDS011;1952;50.872;6.692;2022-07-24T07:09:46;8.00;;;7.30;;
3873;SDS011;1952;50.872;6.692;2022-07-24T07:12:16;8.73;;;8.03;;
3873;SDS011;1952;50.872;6.692;2022-07-24T07:18:37;7.60;;;7.00;;
3873;SDS011;1952;50.872;6.692;2022-07-24T07:21:06;7.67;;;7.17;;
3873;SDS011;1952;50.872;6.692;2022-07-24T07:23:37;6.80;;;6.30;;
3873;SDS011;1952;50.872;6.692;2022-07-24T07:26:05;6.27;;;5.77;;
3873;SDS011;1952;50.872;6.692;2022-07-24T07:28:34;7.93;;;7.40;;
3873;SDS011;1952;50.872;6.692;2022-07-24T07:31:08;7.50;;;6.83;;
3873;SDS011;1952;50.872;6.692;2022-07-24T07:33:38;8.50;;;7.80;;
3873;SDS011;1952;50.872;6.692;2022-07-24T07:36:14;8.10;;;7.40;;
3873;SDS011;1952;50.872;6.692;2022-07-24T07:38:47;6.97;;;6.47;;
3873;SDS011;1952;50.872;6.692;2022-07-24T07:41:25;6.60;;;6.10;;
3873;SDS011;1952;50.872;6.692;2022-07-24T07:43:59;7.93;;;7.33;;
3873;SDS011;1952;50.872;6.692;2022-07-24T07:46:28;7.60;;;7.00;;
3873;SDS011;1952;50.872;6.692;2022-07-24T07:48:59;6.87;;;6.47;;
3873;SDS011;1952;50.872;6.692;2022-07-24T07:51:28;8.57;;;7.70;;
3873;SDS011;1952;50.872;6.692;2022-07-24T07:53:57;7.60;;;7.10;;
3873;SDS011;1952;50.872;6.692;2022-07-24T07:56:31;6.83;;;6.30;;
3873;SDS011;1952;50.872;6.692;2022-07-24T07:59:04;6.67;;;6.20;;
3873;SDS011;1952;50.872;6.692;2022-07-24T08:01:48;6.77;;;6.17;;
3873;SDS011;1952;50.872;6.692;2022-07-24T08:04:45;7.13;;;6.47;;
3873;SDS011;1952;50.872;6.692;2022-07-24T08:07:14;7.13;;;6.53;;
3873;SDS011;1952;50.872;6.692;2022-07-24T08:09:59;8.00;;;7.50;;
3873;SDS011;1952;50.872;6.692;2022-07-24T08:12:27;6.07;;;5.57;;
3873;SDS011;1952;50.872;6.692;2022-07-24T08:15:08;6.00;;;5.60;;
3873;SDS011;1952;50.872;6.692;2022-07-24T08:17:52;6.50;;;6.10;;
3873;SDS011;1952;50.872;6.692;2022-07-24T08:20:26;6.70;;;6.20;;
3873;SDS011;1952;50.872;6.692;2022-07-24T08:22:59;6.73;;;6.23;;
3873;SDS011;1952;50.872;6.692;2022-07-24T08:25:56;6.70;;;6.20;;
3873;SDS011;1952;50.872;6.692;2022-07-24T08:28:29;6.37;;;5.90;;
3873;SDS011;1952;50.872;6.692;2022-07-24T08:30:57;6.50;;;6.10;;
3873;SDS011;1952;50.872;6.692;2022-07-24T08:33:28;6.43;;;6.03;;
3873;SDS011;1952;50.872;6.692;2022-07-24T08:36:04;6.73;;;6.23;;
3873;SDS011;1952;50.872;6.692;2022-07-24T08:38:36;6.50;;;6.00;;
3873;SDS011;1952;50.872;6.692;2022-07-24T08:41:09;6.97;;;6.37;;
3873;SDS011;1952;50.872;6.692;2022-07-24T08:43:39;6.87;;;6.27;;
3873;SDS011;1952;50.872;6.692;2022-07-24T08:46:35;7.17;;;6.53;;
3873;SDS011;1952;50.872;6.692;2022-07-24T08:49:33;7.47;;;6.77;;
3873;SDS011;1952;50.872;6.692;2022-07-24T08:52:13;7.10;;;6.60;;
3873;SDS011;1952;50.872;6.692;2022-07-24T08:54:49;6.87;;;6.37;;
3873;SDS011;1952;50.872;6.692;2022-07-24T08:57:17;7.47;;;7.00;;
3873;SDS011;1952;50.872;6.692;2022-07-24T08:59:53;6.40;;;5.90;;
3873;SDS011;1952;50.872;6.692;2022-07-24T09:02:38;6.73;;;6.23;;
3873;SDS011;1952;50.872;6.692;2022-07-24T09:05:12;7.97;;;7.27;;
3873;SDS011;1952;50.872;6.692;2022-07-24T09:07:42;7.03;;;6.43;;
3873;SDS011;1952;50.872;6.692;2022-07-24T09:10:12;6.87;;;6.37;;
3873;SDS011;1952;50.872;6.692;2022-07-24T09:12:44;7.00;;;6.50;;
3873;SDS011;1952;50.872;6.692;2022-07-24T09:15:19;6.73;;;6.17;;
3873;SDS011;1952;50.872;6.692;2022-07-24T09:17:50;7.03;;;6.43;;
3873;SDS011;1952;50.872;6.692;2022-07-24T09:20:22;7.07;;;6.53;;
3873;SDS011;1952;50.872;6.692;2022-07-24T09:22:54;6.77;;;6.27;;
3873;SDS011;1952;50.872;6.692;2022-07-24T09:25:30;6.90;;;6.50;;
3873;SDS011;1952;50.872;6.692;2022-07-24T09:28:02;6.70;;;6.10;;
3873;SDS011;1952;50.872;6.692;2022-07-24T09:30:43;7.00;;;6.47;;
3873;SDS011;1952;50.872;6.692;2022-07-24T09:33:38;6.70;;;6.23;;
3873;SDS011;1952;50.872;6.692;2022-07-24T09:36:35;7.13;;;6.63;;
3873;SDS011;1952;50.872;6.692;2022-07-24T09:39:10;6.67;;;6.17;;
3873;SDS011;1952;50.872;6.692;2022-07-24T09:41:49;7.50;;;6.90;;
3873;SDS011;1952;50.872;6.692;2022-07-24T09:44:25;7.00;;;6.50;;
3873;SDS011;1952;50.872;6.692;2022-07-24T09:47:02;7.23;;;6.53;;
3873;SDS011;1952;50.872;6.692;2022-07-24T09:49:33;6.53;;;5.97;;
3873;SDS011;1952;50.872;6.692;2022-07-24T09:52:13;7.30;;;6.70;;
3873;SDS011;1952;50.872;6.692;2022-07-24T09:55:24;7.50;;;6.90;;
3873;SDS011;1952;50.872;6.692;2022-07-24T09:57:58;5.83;;;5.43;;
3873;SDS011;1952;50.872;6.692;2022-07-24T10:00:42;7.43;;;6.93;;
3873;SDS011;1952;50.872;6.692;2022-07-24T10:03:12;7.73;;;7.03;;
3873;SDS011;1952;50.872;6.692;2022-07-24T10:06:13;7.00;;;6.50;;
3873;SDS011;1952;50.872;6.692;2022-07-24T10:08:50;7.13;;;6.63;;
3873;SDS011;1952;50.872;6.692;2022-07-24T10:11:48;7.80;;;7.17;;
3873;SDS011;1952;50.872;6.692;2022-07-24T10:14:27;7.07;;;6.50;;
3873;SDS011;1952;50.872;6.692;2022-07-24T10:17:05;6.53;;;6.03;;
3873;SDS011;1952;50.872;6.692;2022-07-24T10:20:03;7.43;;;6.67;;
3873;SDS011;1952;50.872;6.692;2022-07-24T10:23:02;7.77;;;7.07;;
3873;SDS011;1952;50.872;6.692;2022-07-24T10:25:56;7.70;;;7.10;;
3873;SDS011;1952;50.872;6.692;2022-07-24T10:31:42;6.93;;;6.43;;
3873;SDS011;1952;50.872;6.692;2022-07-24T10:34:42;7.40;;;6.90;;
3873;SDS011;1952;50.872;6.692;2022-07-24T10:37:43;7.50;;;6.90;;
3873;SDS011;1952;50.872;6.692;2022-07-24T10:40:48;7.97;;;7.33;;
3873;SDS011;1952;50.872;6.692;2022-07-24T10:47:16;7.60;;;6.30;;
3873;SDS011;1952;50.872;6.692;2022-07-24T10:49:53;7.63;;;6.83;;
3873;SDS011;1952;50.872;6.692;2022-07-24T10:52:33;7.03;;;6.43;;
3873;SDS011;1952;50.872;6.692;2022-07-24T10:55:30;6.93;;;6.33;;
3873;SDS011;1952;50.872;6.692;2022-07-24T10:58:11;6.63;;;6.10;;
3873;SDS011;1952;50.872;6.692;2022-07-24T11:00:55;7.57;;;6.97;;
3873;SDS011;1952;50.872;6.692;2022-07-24T11:03:44;7.70;;;7.10;;
3873;SDS011;1952;50.872;6.692;2022-07-24T11:06:42;7.57;;;6.97;;
3873;SDS011;1952;50.872;6.692;2022-07-24T11:09:18;7.97;;;7.37;;
3873;SDS011;1952;50.872;6.692;2022-07-24T11:12:05;7.50;;;6.80;;
3873;SDS011;1952;50.872;6.692;2022-07-24T11:15:03;7.90;;;7.30;;
3873;SDS011;1952;50.872;6.692;2022-07-24T11:18:12;6.67;;;6.07;;
3873;SDS011;1952;50.872;6.692;2022-07-24T11:20:59;6.50;;;6.00;;
3873;SDS011;1952;50.872;6.692;2022-07-24T11:23:35;7.30;;;6.70;;
3873;SDS011;1952;50.872;6.692;2022-07-24T11:29:11;6.87;;;6.37;;
3873;SDS011;1952;50.872;6.692;2022-07-24T11:31:42;6.37;;;5.97;;
3873;SDS011;1952;50.872;6.692;2022-07-24T11:34:42;6.97;;;6.37;;
3873;SDS011;1952;50.872;6.692;2022-07-24T11:54:13;6.63;;;5.90;;
3873;SDS011;1952;50.872;6.692;2022-07-24T12:40:28;5.50;;;5.00;;
3873;SDS011;1952;50.872;6.692;2022-07-24T12:43:01;5.53;;;5.07;;
3873;SDS011;1952;50.872;6.692;2022-07-24T12:46:06;5.93;;;5.43;;
3873;SDS011;1952;50.872;6.692;2022-07-24T12:49:17;5.13;;;4.73;;
3873;SDS011;1952;50.872;6.692;2022-07-24T12:52:20;5.57;;;5.07;;
3873;SDS011;1952;50.872;6.692;2022-07-24T13:04:40;5.00;;;4.70;;
3873;SDS011;1952;50.872;6.692;2022-07-24T13:07:12;4.80;;;4.40;;
3873;SDS011;1952;50.872;6.692;2022-07-24T13:09:42;5.20;;;4.80;;
3873;SDS011;1952;50.872;6.692;2022-07-24T13:12:18;6.10;;;5.63;;
3873;SDS011;1952;50.872;6.692;2022-07-24T13:14:53;5.10;;;4.70;;
3873;SDS011;1952;50.872;6.692;2022-07-24T13:17:29;5.67;;;5.17;;
3873;SDS011;1952;50.872;6.692;2022-07-24T13:20:25;5.17;;;4.77;;
3873;SDS011;1952;50.872;6.692;2022-07-24T13:22:57;6.40;;;5.80;;
3873;SDS011;1952;50.872;6.692;2022-07-24T13:25:39;5.23;;;4.83;;
3873;SDS011;1952;50.872;6.692;2022-07-24T13:28:36;5.70;;;5.20;;
3873;SDS011;1952;50.872;6.692;2022-07-24T13:31:36;5.77;;;5.30;;
3873;SDS011;1952;50.872;6.692;2022-07-24T13:34:22;5.47;;;5.07;;
3873;SDS011;1952;50.872;6.692;2022-07-24T13:37:18;5.40;;;5.00;;
3873;SDS011;1952;50.872;6.692;2022-07-24T13:39:51;5.80;;;5.20;;
3873;SDS011;1952;50.872;6.692;2022-07-24T13:42:33;6.20;;;5.70;;
3873;SDS011;1952;50.872;6.692;2022-07-24T13:45:07;13.50;;;6.03;;
3873;SDS011;1952;50.872;6.692;2022-07-24T13:47:36;5.10;;;4.70;;
3873;SDS011;1952;50.872;6.692;2022-07-24T13:53:41;5.30;;;4.90;;
3873;SDS011;1952;50.872;6.692;2022-07-24T13:56:38;5.17;;;4.77;;
3873;SDS011;1952;50.872;6.692;2022-07-24T13:59:34;6.60;;;5.97;;
3873;SDS011;1952;50.872;6.692;2022-07-24T14:02:17;5.97;;;5.57;;
3873;SDS011;1952;50.872;6.692;2022-07-24T14:05:13;5.43;;;5.03;;
3873;SDS011;1952;50.872;6.692;2022-07-24T14:14:45;5.60;;;5.10;;
3873;SDS011;1952;50.872;6.692;2022-07-24T14:17:14;5.57;;;5.10;;
3873;SDS011;1952;50.872;6.692;2022-07-24T14:19:42;5.87;;;5.37;;
3873;SDS011;1952;50.872;6.692;2022-07-24T14:22:10;5.50;;;5.00;;
3873;SDS011;1952;50.872;6.692;2022-07-24T14:24:43;6.20;;;5.70;;
3873;SDS011;1952;50.872;6.692;2022-07-24T14:27:11;5.97;;;5.47;;
3873;SDS011;1952;50.872;6.692;2022-07-24T14:29:39;5.63;;;5.13;;
3873;SDS011;1952;50.872;6.692;2022-07-24T14:32:09;5.83;;;5.43;;
3873;SDS011;1952;50.872;6.692;2022-07-24T14:34:37;5.70;;;5.30;;
3873;SDS011;1952;50.872;6.692;2022-07-24T14:37:10;6.03;;;5.63;;
3873;SDS011;1952;50.872;6.692;2022-07-24T14:39:45;5.87;;;5.40;;
3873;SDS011;1952;50.872;6.692;2022-07-24T14:42:12;6.33;;;5.73;;
3873;SDS011;1952;50.872;6.692;2022-07-24T14:44:45;6.00;;;5.53;;
3873;SDS011;1952;50.872;6.692;2022-07-24T14:47:20;5.53;;;5.03;;
3873;SDS011;1952;50.872;6.692;2022-07-24T14:49:48;5.43;;;5.03;;
3873;SDS011;1952;50.872;6.692;2022-07-24T14:52:18;5.97;;;5.57;;
3873;SDS011;1952;50.872;6.692;2022-07-24T14:54:51;5.83;;;5.40;;
3873;SDS011;1952;50.872;6.692;2022-07-24T14:57:19;6.10;;;5.23;;
3873;SDS011;1952;50.872;6.692;2022-07-24T14:59:47;5.30;;;4.90;;
3873;SDS011;1952;50.872;6.692;2022-07-24T15:02:22;5.93;;;5.43;;
3873;SDS011;1952;50.872;6.692;2022-07-24T15:04:54;5.57;;;5.10;;
3873;SDS011;1952;50.872;6.692;2022-07-24T15:07:22;5.57;;;5.07;;
3873;SDS011;1952;50.872;6.692;2022-07-24T15:09:56;6.83;;;5.30;;
3873;SDS011;1952;50.872;6.692;2022-07-24T15:12:24;5.97;;;5.47;;
3873;SDS011;1952;50.872;6.692;2022-07-24T15:14:52;5.27;;;4.87;;
3873;SDS011;1952;50.872;6.692;2022-07-24T15:17:21;6.53;;;6.03;;
3873;SDS011;1952;50.872;6.692;2022-07-24T15:19:49;6.27;;;5.77;;
3873;SDS011;1952;50.872;6.692;2022-07-24T15:22:22;6.00;;;5.60;;
3873;SDS011;1952;50.872;6.692;2022-07-24T15:24:52;5.47;;;5.00;;
3873;SDS011;1952;50.872;6.692;2022-07-24T15:27:25;7.80;;;5.77;;
3873;SDS011;1952;50.872;6.692;2022-07-24T15:29:57;5.23;;;4.83;;
3873;SDS011;1952;50.872;6.692;2022-07-24T15:32:28;5.97;;;5.57;;
3873;SDS011;1952;50.872;6.692;2022-07-24T15:34:57;7.00;;;6.40;;
3873;SDS011;1952;50.872;6.692;2022-07-24T15:37:31;5.20;;;4.83;;
3873;SDS011;1952;50.872;6.692;2022-07-24T15:40:04;6.87;;;6.17;;
3873;SDS011;1952;50.872;6.692;2022-07-24T15:42:42;5.73;;;5.33;;
3873;SDS011;1952;50.872;6.692;2022-07-24T15:45:14;5.70;;;5.30;;
3873;SDS011;1952;50.872;6.692;2022-07-24T15:47:44;5.63;;;5.13;;
3873;SDS011;1952;50.872;6.692;2022-07-24T15:50:12;6.00;;;5.60;;
3873;SDS011;1952;50.872;6.692;2022-07-24T15:52:40;5.63;;;5.17;;
3873;SDS011;1952;50.872;6.692;2022-07-24T15:55:12;6.13;;;5.60;;
3873;SDS011;1952;50.872;6.692;2022-07-24T15:57:45;5.53;;;5.10;;
3873;SDS011;1952;50.872;6.692;2022-07-24T16:00:13;6.07;;;5.57;;
3873;SDS011;1952;50.872;6.692;2022-07-24T16:02:43;7.53;;;5.70;;
3873;SDS011;1952;50.872;6.692;2022-07-24T16:05:11;5.60;;;5.20;;
3873;SDS011;1952;50.872;6.692;2022-07-24T16:07:39;6.40;;;5.90;;
3873;SDS011;1952;50.872;6.692;2022-07-24T16:10:12;6.50;;;6.00;;
3873;SDS011;1952;50.872;6.692;2022-07-24T16:12:42;6.07;;;5.67;;
3873;SDS011;1952;50.872;6.692;2022-07-24T16:15:10;5.77;;;5.37;;
3873;SDS011;1952;50.872;6.692;2022-07-24T16:20:41;7.87;;;7.27;;
3873;SDS011;1952;50.872;6.692;2022-07-24T16:23:23;6.70;;;6.03;;
3873;SDS011;1952;50.872;6.692;2022-07-24T16:26:07;6.53;;;5.93;;
3873;SDS011;1952;50.872;6.692;2022-07-24T16:28:35;6.23;;;5.70;;
3873;SDS011;1952;50.872;6.692;2022-07-24T16:31:03;6.13;;;5.63;;
3873;SDS011;1952;50.872;6.692;2022-07-24T16:33:40;6.13;;;5.70;;
3873;SDS011;1952;50.872;6.692;2022-07-24T16:36:09;6.77;;;6.07;;
3873;SDS011;1952;50.872;6.692;2022-07-24T16:38:37;6.13;;;5.70;;
3873;SDS011;1952;50.872;6.692;2022-07-24T16:41:12;5.30;;;4.87;;
3873;SDS011;1952;50.872;6.692;2022-07-24T16:46:29;6.17;;;5.77;;
3873;SDS011;1952;50.872;6.692;2022-07-24T16:49:01;5.67;;;5.27;;
3873;SDS011;1952;50.872;6.692;2022-07-24T16:51:47;6.40;;;5.80;;
3873;SDS011;1952;50.872;6.692;2022-07-24T16:54:15;6.63;;;6.13;;
3873;SDS011;1952;50.872;6.692;2022-07-24T16:56:45;6.53;;;5.93;;
3873;SDS011;1952;50.872;6.692;2022-07-24T16:59:13;6.57;;;5.97;;
3873;SDS011;1952;50.872;6.692;2022-07-24T17:01:49;6.73;;;6.23;;
3873;SDS011;1952;50.872;6.692;2022-07-24T17:04:19;5.77;;;5.27;;
3873;SDS011;1952;50.872;6.692;2022-07-24T17:06:50;6.07;;;5.67;;
3873;SDS011;1952;50.872;6.692;2022-07-24T17:09:18;6.30;;;5.80;;
3873;SDS011;1952;50.872;6.692;2022-07-24T17:11:47;5.90;;;5.50;;
3873;SDS011;1952;50.872;6.692;2022-07-24T17:14:18;6.23;;;5.73;;
3873;SDS011;1952;50.872;6.692;2022-07-24T17:16:47;6.77;;;6.13;;
3873;SDS011;1952;50.872;6.692;2022-07-24T17:26:18;6.60;;;6.00;;
3873;SDS011;1952;50.872;6.692;2022-07-24T17:31:43;6.17;;;5.67;;
3873;SDS011;1952;50.872;6.692;2022-07-24T17:34:16;5.60;;;5.20;;
3873;SDS011;1952;50.872;6.692;2022-07-24T17:36:49;6.80;;;6.30;;
3873;SDS011;1952;50.872;6.692;2022-07-24T17:39:19;5.70;;;5.30;;
3873;SDS011;1952;50.872;6.692;2022-07-24T17:41:47;6.27;;;5.80;;
3873;SDS011;1952;50.872;6.692;2022-07-24T17:44:15;5.80;;;5.50;;
3873;SDS011;1952;50.872;6.692;2022-07-24T17:46:43;5.63;;;5.13;;
3873;SDS011;1952;50.872;6.692;2022-07-24T17:49:11;6.03;;;5.53;;
3873;SDS011;1952;50.872;6.692;2022-07-24T17:51:46;5.87;;;5.37;;
3873;SDS011;1952;50.872;6.692;2022-07-24T17:54:21;6.70;;;6.27;;
3873;SDS011;1952;50.872;6.692;2022-07-24T18:36:22;7.10;;;6.60;;
3873;SDS011;1952;50.872;6.692;2022-07-24T18:38:51;6.93;;;6.33;;
3873;SDS011;1952;50.872;6.692;2022-07-24T18:41:20;6.33;;;5.90;;
3873;SDS011;1952;50.872;6.692;2022-07-24T18:43:49;6.43;;;5.93;;
3873;SDS011;1952;50.872;6.692;2022-07-24T18:46:23;7.20;;;6.50;;
3873;SDS011;1952;50.872;6.692;2022-07-24T18:48:56;6.40;;;5.90;;
3873;SDS011;1952;50.872;6.692;2022-07-24T18:51:31;6.30;;;5.80;;
3873;SDS011;1952;50.872;6.692;2022-07-24T18:54:00;7.00;;;6.30;;
3873;SDS011;1952;50.872;6.692;2022-07-24T18:56:33;6.93;;;5.80;;
3873;SDS011;1952;50.872;6.692;2022-07-24T18:59:07;7.20;;;6.50;;
3873;SDS011;1952;50.872;6.692;2022-07-24T19:01:40;7.17;;;6.67;;
3873;SDS011;1952;50.872;6.692;2022-07-24T19:04:09;7.10;;;6.50;;
3873;SDS011;1952;50.872;6.692;2022-07-24T19:06:43;7.00;;;6.30;;
3873;SDS011;1952;50.872;6.692;2022-07-24T19:09:17;7.53;;;6.93;;
3873;SDS011;1952;50.872;6.692;2022-07-24T19:11:46;7.70;;;7.00;;
3873;SDS011;1952;50.872;6.692;2022-07-24T19:14:20;8.10;;;7.40;;
3873;SDS011;1952;50.872;6.692;2022-07-24T19:16:49;8.20;;;7.50;;
3873;SDS011;1952;50.872;6.692;2022-07-24T19:19:17;7.50;;;6.80;;
3873;SDS011;1952;50.872;6.692;2022-07-24T19:21:50;7.33;;;6.70;;
3873;SDS011;1952;50.872;6.692;2022-07-24T19:24:20;8.57;;;7.87;;
3873;SDS011;1952;50.872;6.692;2022-07-24T19:26:52;8.20;;;7.50;;
3873;SDS011;1952;50.872;6.692;2022-07-24T19:29:21;7.47;;;6.77;;
3873;SDS011;1952;50.872;6.692;2022-07-24T19:31:50;8.60;;;6.10;;
3873;SDS011;1952;50.872;6.692;2022-07-24T19:34:23;6.67;;;6.07;;
3873;SDS011;1952;50.872;6.692;2022-07-24T19:36:58;8.63;;;6.57;;
3873;SDS011;1952;50.872;6.692;2022-07-24T19:39:32;7.53;;;6.93;;
3873;SDS011;1952;50.872;6.692;2022-07-24T19:42:01;8.70;;;6.70;;
3873;SDS011;1952;50.872;6.692;2022-07-24T19:47:00;7.67;;;6.97;;
3873;SDS011;1952;50.872;6.692;2022-07-24T19:49:28;7.00;;;6.50;;